Battle Creek, MI (49014)

10:42 PM EDT on July 26, 2016 (GMT -0400)
Wattles Park | | Change Station

Elev 903 ft 42.32 °N, 85.11 °W | Updated 2 seconds ago

Partly Cloudy
Partly Cloudy
70.9 °F
Feels Like 70.9 °F
N
0.0
Wind Variable Wind from NW
Gusts 0.0 mph

Today
High -- | Low -- °F
--% Chance of Precip.
Yesterday
High -- | Low -- °F
Precip. -- in
Pressure 30.01 in
Visibility 10.0 miles
Clouds Few 6000 ft
Dew Point 66 °F
Humidity 86%
Rainfall 0.00 in
Snow Depth Not available.
6:27 AM 9:05 PM
Waning Gibbous, 48% visible
METAR KBTL 270153Z 30004KT 10SM FEW060 23/19 A3003 RMK AO2 SLP163 T02280189
Pressure 30.01 in
Visibility 10.0 miles
Clouds Few 6000 ft
Dew Point 66 °F
Humidity 86%
Rainfall 0.00 in
Snow Depth Not available.
6:27 AM 9:05 PM
Waning Gibbous, 48% visible
METAR KBTL 270153Z 30004KT 10SM FEW060 23/19 A3003 RMK AO2 SLP163 T02280189

10-Day Weather Forecast

Almanac

Astronomy

Jul. 26, 2016 Rise Set
Actual Time
Civil Twilight
Nautical Twilight
Astronomical Twilight
Moon
Length of Visible Light
Length of Day
Tomorrow will be .
, % of the Moon is Illuminated

Today's Extremes

State Highs State Lows

Community

WunderPhotos

Upload Photos

1,927,784 photos uploaded!

WunderBlog® & News

Nearby

Air Quality

  Air Quality AQ Index Pollutant
Not available.

Snow Depth

Station Depth Elevation

Earthquake Activity

City Distance Mag. Time & Date
Minimum magnitude displayed is 2.5.

Coastal Water Temperatures

Place Temperature

Stations

Nearby Weather Stations

Station Location Temp. Windchill Dew Point Humidity Wind Precip. Elev Updated Type
                   

Watches & Warnings

There are currently no watches in effect.